sensor_id;sensor_type;location;lat;lon;timestamp;temperature;humidity
3528;DHT22;1778;47.966;7.854;2023-01-13T00:00:13;11.70;99.90
3528;DHT22;1778;47.966;7.854;2023-01-13T00:01:17;11.70;99.90
3528;DHT22;1778;47.966;7.854;2023-01-13T00:02:19;11.70;99.90
3528;DHT22;1778;47.966;7.854;2023-01-13T00:03:20;11.70;99.90
3528;DHT22;1778;47.966;7.854;2023-01-13T00:04:22;11.70;99.90
3528;DHT22;1778;47.966;7.854;2023-01-13T00:05:24;11.70;99.90
3528;DHT22;1778;47.966;7.854;2023-01-13T00:06:27;11.80;99.90
3528;DHT22;1778;47.966;7.854;2023-01-13T00:07:29;11.70;99.90
3528;DHT22;1778;47.966;7.854;2023-01-13T00:08:31;11.70;99.90
3528;DHT22;1778;47.966;7.854;2023-01-13T00:09:33;11.70;99.90
3528;DHT22;1778;47.966;7.854;2023-01-13T00:10:35;11.80;99.90
3528;DHT22;1778;47.966;7.854;2023-01-13T00:11:36;11.80;99.90
3528;DHT22;1778;47.966;7.854;2023-01-13T00:12:41;11.80;99.90
3528;DHT22;1778;47.966;7.854;2023-01-13T00:13:43;11.80;99.90
3528;DHT22;1778;47.966;7.854;2023-01-13T00:14:45;11.80;99.90
3528;DHT22;1778;47.966;7.854;2023-01-13T00:15:57;11.80;99.90
3528;DHT22;1778;47.966;7.854;2023-01-13T00:16:59;11.80;99.90
3528;DHT22;1778;47.966;7.854;2023-01-13T00:18:01;11.70;99.90
3528;DHT22;1778;47.966;7.854;2023-01-13T00:19:02;11.80;99.90
3528;DHT22;1778;47.966;7.854;2023-01-13T00:20:04;11.80;99.90
3528;DHT22;1778;47.966;7.854;2023-01-13T00:21:19;11.80;99.90
3528;DHT22;1778;47.966;7.854;2023-01-13T00:22:21;11.80;99.90
3528;DHT22;1778;47.966;7.854;2023-01-13T00:23:23;11.80;99.90
3528;DHT22;1778;47.966;7.854;2023-01-13T00:24:25;11.70;99.90
3528;DHT22;1778;47.966;7.854;2023-01-13T00:25:27;11.80;99.90
3528;DHT22;1778;47.966;7.854;2023-01-13T00:26:30;11.80;99.90
3528;DHT22;1778;47.966;7.854;2023-01-13T00:27:35;11.80;99.90
3528;DHT22;1778;47.966;7.854;2023-01-13T00:28:37;11.80;99.90
3528;DHT22;1778;47.966;7.854;2023-01-13T00:29:39;11.70;99.90
3528;DHT22;1778;47.966;7.854;2023-01-13T00:30:41;11.80;99.90
3528;DHT22;1778;47.966;7.854;2023-01-13T00:31:42;11.80;99.90
3528;DHT22;1778;47.966;7.854;2023-01-13T00:32:43;11.80;99.90
3528;DHT22;1778;47.966;7.854;2023-01-13T00:33:45;11.90;99.90
3528;DHT22;1778;47.966;7.854;2023-01-13T00:34:49;11.90;99.90
3528;DHT22;1778;47.966;7.854;2023-01-13T00:35:57;11.90;99.90
3528;DHT22;1778;47.966;7.854;2023-01-13T00:36:59;11.80;99.90
3528;DHT22;1778;47.966;7.854;2023-01-13T00:38:01;11.80;99.90
3528;DHT22;1778;47.966;7.854;2023-01-13T00:39:02;11.80;99.90
3528;DHT22;1778;47.966;7.854;2023-01-13T00:40:04;11.70;99.90
3528;DHT22;1778;47.966;7.854;2023-01-13T00:41:09;11.60;99.90
3528;DHT22;1778;47.966;7.854;2023-01-13T00:42:12;11.60;99.90
3528;DHT22;1778;47.966;7.854;2023-01-13T00:43:34;11.70;99.90
3528;DHT22;1778;47.966;7.854;2023-01-13T00:44:36;11.70;99.90
3528;DHT22;1778;47.966;7.854;2023-01-13T00:45:38;11.70;99.90
3528;DHT22;1778;47.966;7.854;2023-01-13T00:46:39;11.80;99.90
3528;DHT22;1778;47.966;7.854;2023-01-13T00:47:40;11.80;99.90
3528;DHT22;1778;47.966;7.854;2023-01-13T00:48:42;11.80;99.90
3528;DHT22;1778;47.966;7.854;2023-01-13T00:49:44;11.80;99.90
3528;DHT22;1778;47.966;7.854;2023-01-13T00:50:45;11.80;99.90
3528;DHT22;1778;47.966;7.854;2023-01-13T00:51:47;11.80;99.90
3528;DHT22;1778;47.966;7.854;2023-01-13T00:52:49;11.70;99.90
3528;DHT22;1778;47.966;7.854;2023-01-13T00:53:51;11.80;99.90
3528;DHT22;1778;47.966;7.854;2023-01-13T00:54:52;11.80;99.90
3528;DHT22;1778;47.966;7.854;2023-01-13T00:56:09;11.70;99.90
3528;DHT22;1778;47.966;7.854;2023-01-13T00:57:14;11.70;99.90
3528;DHT22;1778;47.966;7.854;2023-01-13T00:58:15;11.70;99.90
3528;DHT22;1778;47.966;7.854;2023-01-13T00:59:17;11.70;99.90
3528;DHT22;1778;47.966;7.854;2023-01-13T01:00:19;11.70;99.90
3528;DHT22;1778;47.966;7.854;2023-01-13T01:01:22;11.80;99.90
3528;DHT22;1778;47.966;7.854;2023-01-13T01:02:24;11.70;99.90
3528;DHT22;1778;47.966;7.854;2023-01-13T01:03:26;11.70;99.90
3528;DHT22;1778;47.966;7.854;2023-01-13T01:04:27;11.70;99.90
3528;DHT22;1778;47.966;7.854;2023-01-13T01:05:29;11.80;99.90
3528;DHT22;1778;47.966;7.854;2023-01-13T01:06:33;11.80;99.90
3528;DHT22;1778;47.966;7.854;2023-01-13T01:07:34;11.80;99.90
3528;DHT22;1778;47.966;7.854;2023-01-13T01:08:36;11.80;99.90
3528;DHT22;1778;47.966;7.854;2023-01-13T01:09:38;11.70;99.90
3528;DHT22;1778;47.966;7.854;2023-01-13T01:10:40;11.70;99.90
3528;DHT22;1778;47.966;7.854;2023-01-13T01:11:42;11.70;99.90
3528;DHT22;1778;47.966;7.854;2023-01-13T01:12:44;11.60;99.90
3528;DHT22;1778;47.966;7.854;2023-01-13T01:13:46;11.60;99.90
3528;DHT22;1778;47.966;7.854;2023-01-13T01:14:48;11.60;99.90
3528;DHT22;1778;47.966;7.854;2023-01-13T01:15:49;11.50;99.90
3528;DHT22;1778;47.966;7.854;2023-01-13T01:16:51;11.50;99.90
3528;DHT22;1778;47.966;7.854;2023-01-13T01:17:53;11.50;99.90
3528;DHT22;1778;47.966;7.854;2023-01-13T01:18:54;11.60;99.90
3528;DHT22;1778;47.966;7.854;2023-01-13T01:19:56;11.60;99.90
3528;DHT22;1778;47.966;7.854;2023-01-13T01:21:01;11.60;99.90
3528;DHT22;1778;47.966;7.854;2023-01-13T01:22:03;11.70;99.90
3528;DHT22;1778;47.966;7.854;2023-01-13T01:23:04;11.70;99.90
3528;DHT22;1778;47.966;7.854;2023-01-13T01:24:06;11.70;99.90
3528;DHT22;1778;47.966;7.854;2023-01-13T01:25:08;11.80;99.90
3528;DHT22;1778;47.966;7.854;2023-01-13T01:26:18;11.80;99.90
3528;DHT22;1778;47.966;7.854;2023-01-13T01:27:20;11.70;99.90
3528;DHT22;1778;47.966;7.854;2023-01-13T01:28:21;11.70;99.90
3528;DHT22;1778;47.966;7.854;2023-01-13T01:29:23;11.60;99.90
3528;DHT22;1778;47.966;7.854;2023-01-13T01:30:25;11.60;99.90
3528;DHT22;1778;47.966;7.854;2023-01-13T01:31:29;11.70;99.90
3528;DHT22;1778;47.966;7.854;2023-01-13T01:32:33;11.60;99.90
3528;DHT22;1778;47.966;7.854;2023-01-13T01:33:35;11.60;99.90
3528;DHT22;1778;47.966;7.854;2023-01-13T01:34:36;11.60;99.90
3528;DHT22;1778;47.966;7.854;2023-01-13T01:35:39;11.60;99.90
3528;DHT22;1778;47.966;7.854;2023-01-13T01:36:41;11.60;99.90
3528;DHT22;1778;47.966;7.854;2023-01-13T01:37:43;11.50;99.90
3528;DHT22;1778;47.966;7.854;2023-01-13T01:38:45;11.60;99.90
3528;DHT22;1778;47.966;7.854;2023-01-13T01:39:47;11.50;99.90
3528;DHT22;1778;47.966;7.854;2023-01-13T01:40:48;11.60;99.90
3528;DHT22;1778;47.966;7.854;2023-01-13T01:41:50;11.60;99.90
3528;DHT22;1778;47.966;7.854;2023-01-13T01:43:20;11.60;99.90
3528;DHT22;1778;47.966;7.854;2023-01-13T01:45:42;11.50;99.90
3528;DHT22;1778;47.966;7.854;2023-01-13T01:46:44;11.50;99.90
3528;DHT22;1778;47.966;7.854;2023-01-13T01:47:49;11.50;99.90
3528;DHT22;1778;47.966;7.854;2023-01-13T01:48:57;11.50;99.90
3528;DHT22;1778;47.966;7.854;2023-01-13T01:50:01;11.50;99.90
3528;DHT22;1778;47.966;7.854;2023-01-13T01:51:06;11.50;99.90
3528;DHT22;1778;47.966;7.854;2023-01-13T01:53:22;11.60;99.90
3528;DHT22;1778;47.966;7.854;2023-01-13T01:54:49;11.60;99.90
3528;DHT22;1778;47.966;7.854;2023-01-13T01:55:53;11.60;99.90
3528;DHT22;1778;47.966;7.854;2023-01-13T01:56:55;11.50;99.90
3528;DHT22;1778;47.966;7.854;2023-01-13T01:58:06;11.40;99.90
3528;DHT22;1778;47.966;7.854;2023-01-13T01:59:13;11.30;99.90
3528;DHT22;1778;47.966;7.854;2023-01-13T02:00:15;11.30;99.90
3528;DHT22;1778;47.966;7.854;2023-01-13T02:01:16;11.30;99.90
3528;DHT22;1778;47.966;7.854;2023-01-13T02:02:19;11.30;99.90
3528;DHT22;1778;47.966;7.854;2023-01-13T02:03:21;11.30;99.90
3528;DHT22;1778;47.966;7.854;2023-01-13T02:04:27;11.30;99.90
3528;DHT22;1778;47.966;7.854;2023-01-13T02:05:29;11.30;99.90
3528;DHT22;1778;47.966;7.854;2023-01-13T02:06:31;11.30;99.90
3528;DHT22;1778;47.966;7.854;2023-01-13T02:07:33;11.40;99.90
3528;DHT22;1778;47.966;7.854;2023-01-13T02:08:39;11.40;99.90
3528;DHT22;1778;47.966;7.854;2023-01-13T02:09:40;11.40;99.90
3528;DHT22;1778;47.966;7.854;2023-01-13T02:10:43;11.50;99.90
3528;DHT22;1778;47.966;7.854;2023-01-13T02:11:45;11.50;99.90
3528;DHT22;1778;47.966;7.854;2023-01-13T02:13:09;11.40;99.90
3528;DHT22;1778;47.966;7.854;2023-01-13T02:14:12;11.50;99.90
3528;DHT22;1778;47.966;7.854;2023-01-13T02:15:22;11.40;99.90
3528;DHT22;1778;47.966;7.854;2023-01-13T02:16:26;11.50;99.90
3528;DHT22;1778;47.966;7.854;2023-01-13T02:17:53;11.40;99.90
3528;DHT22;1778;47.966;7.854;2023-01-13T02:20:43;11.40;99.90
3528;DHT22;1778;47.966;7.854;2023-01-13T02:25:15;11.50;99.90
3528;DHT22;1778;47.966;7.854;2023-01-13T02:27:43;11.40;99.90
3528;DHT22;1778;47.966;7.854;2023-01-13T02:29:11;11.40;99.90
3528;DHT22;1778;47.966;7.854;2023-01-13T02:30:40;11.40;99.90
3528;DHT22;1778;47.966;7.854;2023-01-13T02:32:10;11.30;99.90
3528;DHT22;1778;47.966;7.854;2023-01-13T02:33:33;11.40;99.90
3528;DHT22;1778;47.966;7.854;2023-01-13T02:34:45;11.40;99.90
3528;DHT22;1778;47.966;7.854;2023-01-13T02:37:12;11.40;99.90
3528;DHT22;1778;47.966;7.854;2023-01-13T02:38:15;11.40;99.90
3528;DHT22;1778;47.966;7.854;2023-01-13T02:39:27;11.30;99.90
3528;DHT22;1778;47.966;7.854;2023-01-13T02:40:50;11.40;99.90
3528;DHT22;1778;47.966;7.854;2023-01-13T02:42:06;11.40;99.90
3528;DHT22;1778;47.966;7.854;2023-01-13T02:43:37;11.40;99.90
3528;DHT22;1778;47.966;7.854;2023-01-13T02:45:08;11.30;99.90
3528;DHT22;1778;47.966;7.854;2023-01-13T02:46:26;11.30;99.90
3528;DHT22;1778;47.966;7.854;2023-01-13T02:47:29;11.30;99.90
3528;DHT22;1778;47.966;7.854;2023-01-13T02:48:33;11.30;99.90
3528;DHT22;1778;47.966;7.854;2023-01-13T02:49:43;11.30;99.90
3528;DHT22;1778;47.966;7.854;2023-01-13T02:51:03;11.30;99.90
3528;DHT22;1778;47.966;7.854;2023-01-13T02:52:12;11.30;99.90
3528;DHT22;1778;47.966;7.854;2023-01-13T02:53:25;11.30;99.90
3528;DHT22;1778;47.966;7.854;2023-01-13T02:54:29;11.30;99.90
3528;DHT22;1778;47.966;7.854;2023-01-13T02:55:52;11.30;99.90
3528;DHT22;1778;47.966;7.854;2023-01-13T02:56:56;11.30;99.90
3528;DHT22;1778;47.966;7.854;2023-01-13T02:58:00;11.30;99.90
3528;DHT22;1778;47.966;7.854;2023-01-13T02:59:03;11.40;99.90
3528;DHT22;1778;47.966;7.854;2023-01-13T03:00:08;11.40;99.90
3528;DHT22;1778;47.966;7.854;2023-01-13T03:01:10;11.30;99.90
3528;DHT22;1778;47.966;7.854;2023-01-13T03:02:17;11.30;99.90
3528;DHT22;1778;47.966;7.854;2023-01-13T03:03:20;11.30;99.90
3528;DHT22;1778;47.966;7.854;2023-01-13T03:05:46;11.40;99.90
3528;DHT22;1778;47.966;7.854;2023-01-13T03:07:01;11.30;99.90
3528;DHT22;1778;47.966;7.854;2023-01-13T03:08:32;11.30;99.90
3528;DHT22;1778;47.966;7.854;2023-01-13T03:09:42;11.30;99.90
3528;DHT22;1778;47.966;7.854;2023-01-13T03:11:04;11.30;99.90
3528;DHT22;1778;47.966;7.854;2023-01-13T03:12:15;11.30;99.90
3528;DHT22;1778;47.966;7.854;2023-01-13T03:13:37;11.30;99.90
3528;DHT22;1778;47.966;7.854;2023-01-13T03:19:58;11.30;99.90
3528;DHT22;1778;47.966;7.854;2023-01-13T03:22:33;11.20;99.90
3528;DHT22;1778;47.966;7.854;2023-01-13T03:24:54;11.30;99.90
3528;DHT22;1778;47.966;7.854;2023-01-13T03:27:27;11.20;99.90
3528;DHT22;1778;47.966;7.854;2023-01-13T03:28:43;11.20;99.90
3528;DHT22;1778;47.966;7.854;2023-01-13T03:29:56;11.20;99.90
3528;DHT22;1778;47.966;7.854;2023-01-13T03:31:04;11.20;99.90
3528;DHT22;1778;47.966;7.854;2023-01-13T03:33:16;11.20;99.90
3528;DHT22;1778;47.966;7.854;2023-01-13T03:34:21;11.20;99.90
3528;DHT22;1778;47.966;7.854;2023-01-13T03:35:31;11.20;99.90
3528;DHT22;1778;47.966;7.854;2023-01-13T03:36:35;11.30;99.90
3528;DHT22;1778;47.966;7.854;2023-01-13T03:37:42;11.20;99.90
3528;DHT22;1778;47.966;7.854;2023-01-13T03:38:51;11.30;99.90
3528;DHT22;1778;47.966;7.854;2023-01-13T03:39:58;11.20;99.90
3528;DHT22;1778;47.966;7.854;2023-01-13T03:41:16;11.30;99.90
3528;DHT22;1778;47.966;7.854;2023-01-13T03:42:22;11.30;99.90
3528;DHT22;1778;47.966;7.854;2023-01-13T03:43:33;11.30;99.90
3528;DHT22;1778;47.966;7.854;2023-01-13T03:45:12;11.30;99.90
3528;DHT22;1778;47.966;7.854;2023-01-13T03:48:07;11.30;99.90
3528;DHT22;1778;47.966;7.854;2023-01-13T03:49:14;11.30;99.90
3528;DHT22;1778;47.966;7.854;2023-01-13T03:50:24;11.30;99.90
3528;DHT22;1778;47.966;7.854;2023-01-13T03:51:30;11.20;99.90
3528;DHT22;1778;47.966;7.854;2023-01-13T03:52:50;11.30;99.90
3528;DHT22;1778;47.966;7.854;2023-01-13T03:53:59;11.30;99.90
3528;DHT22;1778;47.966;7.854;2023-01-13T03:55:11;11.20;99.90
3528;DHT22;1778;47.966;7.854;2023-01-13T03:56:38;11.20;99.90
3528;DHT22;1778;47.966;7.854;2023-01-13T03:59:05;11.20;99.90
3528;DHT22;1778;47.966;7.854;2023-01-13T04:00:09;11.20;99.90
3528;DHT22;1778;47.966;7.854;2023-01-13T04:02:50;11.20;99.90
3528;DHT22;1778;47.966;7.854;2023-01-13T04:03:56;11.20;99.90
3528;DHT22;1778;47.966;7.854;2023-01-13T04:05:02;11.20;99.90
3528;DHT22;1778;47.966;7.854;2023-01-13T04:07:32;11.20;99.90
3528;DHT22;1778;47.966;7.854;2023-01-13T04:08:40;11.20;99.90
3528;DHT22;1778;47.966;7.854;2023-01-13T04:09:55;11.20;99.90
3528;DHT22;1778;47.966;7.854;2023-01-13T04:11:10;11.10;99.90
3528;DHT22;1778;47.966;7.854;2023-01-13T04:12:27;11.10;99.90
3528;DHT22;1778;47.966;7.854;2023-01-13T04:13:54;11.10;99.90
3528;DHT22;1778;47.966;7.854;2023-01-13T04:14:56;11.10;99.90
3528;DHT22;1778;47.966;7.854;2023-01-13T04:15:58;11.10;99.90
3528;DHT22;1778;47.966;7.854;2023-01-13T04:17:00;11.10;99.90
3528;DHT22;1778;47.966;7.854;2023-01-13T04:18:23;11.10;99.90
3528;DHT22;1778;47.966;7.854;2023-01-13T04:19:24;11.20;99.90
3528;DHT22;1778;47.966;7.854;2023-01-13T04:20:26;11.20;99.90
3528;DHT22;1778;47.966;7.854;2023-01-13T04:21:28;11.10;99.90
3528;DHT22;1778;47.966;7.854;2023-01-13T04:22:30;11.10;99.90
3528;DHT22;1778;47.966;7.854;2023-01-13T04:23:32;11.20;99.90
3528;DHT22;1778;47.966;7.854;2023-01-13T04:24:34;11.20;99.90
3528;DHT22;1778;47.966;7.854;2023-01-13T04:25:37;11.10;99.90
3528;DHT22;1778;47.966;7.854;2023-01-13T04:26:38;11.10;99.90
3528;DHT22;1778;47.966;7.854;2023-01-13T04:27:40;11.20;99.90
3528;DHT22;1778;47.966;7.854;2023-01-13T04:28:41;11.20;99.90
3528;DHT22;1778;47.966;7.854;2023-01-13T04:29:43;11.20;99.90
3528;DHT22;1778;47.966;7.854;2023-01-13T04:30:45;11.20;99.90
3528;DHT22;1778;47.966;7.854;2023-01-13T04:31:47;11.20;99.90
3528;DHT22;1778;47.966;7.854;2023-01-13T04:32:48;11.20;99.90
3528;DHT22;1778;47.966;7.854;2023-01-13T04:33:50;11.20;99.90
3528;DHT22;1778;47.966;7.854;2023-01-13T04:34:52;11.20;99.90
3528;DHT22;1778;47.966;7.854;2023-01-13T04:35:53;11.10;99.90
3528;DHT22;1778;47.966;7.854;2023-01-13T04:36:55;11.10;99.90
3528;DHT22;1778;47.966;7.854;2023-01-13T04:38:00;11.10;99.90
3528;DHT22;1778;47.966;7.854;2023-01-13T04:39:02;11.10;99.90
3528;DHT22;1778;47.966;7.854;2023-01-13T04:40:04;11.10;99.90
3528;DHT22;1778;47.966;7.854;2023-01-13T04:41:06;11.10;99.90
3528;DHT22;1778;47.966;7.854;2023-01-13T04:42:08;11.10;99.90
3528;DHT22;1778;47.966;7.854;2023-01-13T04:43:09;11.10;99.90
3528;DHT22;1778;47.966;7.854;2023-01-13T04:44:11;11.10;99.90
3528;DHT22;1778;47.966;7.854;2023-01-13T04:45:13;11.10;99.90
3528;DHT22;1778;47.966;7.854;2023-01-13T04:46:14;11.00;99.90
3528;DHT22;1778;47.966;7.854;2023-01-13T04:47:16;11.10;99.90
3528;DHT22;1778;47.966;7.854;2023-01-13T04:48:17;11.10;99.90
3528;DHT22;1778;47.966;7.854;2023-01-13T04:49:19;11.10;99.90
3528;DHT22;1778;47.966;7.854;2023-01-13T04:50:20;11.10;99.90
3528;DHT22;1778;47.966;7.854;2023-01-13T04:51:23;11.10;99.90
3528;DHT22;1778;47.966;7.854;2023-01-13T04:52:24;11.10;99.90
3528;DHT22;1778;47.966;7.854;2023-01-13T04:53:26;11.10;99.90
3528;DHT22;1778;47.966;7.854;2023-01-13T04:54:27;11.10;99.90
3528;DHT22;1778;47.966;7.854;2023-01-13T04:55:29;11.10;99.90
3528;DHT22;1778;47.966;7.854;2023-01-13T04:56:32;11.00;99.90
3528;DHT22;1778;47.966;7.854;2023-01-13T04:57:34;11.00;99.90
3528;DHT22;1778;47.966;7.854;2023-01-13T04:58:35;11.00;99.90
3528;DHT22;1778;47.966;7.854;2023-01-13T04:59:37;11.00;99.90
3528;DHT22;1778;47.966;7.854;2023-01-13T05:00:38;11.00;99.90
3528;DHT22;1778;47.966;7.854;2023-01-13T05:01:40;11.00;99.90
3528;DHT22;1778;47.966;7.854;2023-01-13T05:02:41;11.00;99.90
3528;DHT22;1778;47.966;7.854;2023-01-13T05:03:43;11.00;99.90
3528;DHT22;1778;47.966;7.854;2023-01-13T05:04:45;11.00;99.90
3528;DHT22;1778;47.966;7.854;2023-01-13T05:05:50;11.00;99.90
3528;DHT22;1778;47.966;7.854;2023-01-13T05:06:52;11.00;99.90
3528;DHT22;1778;47.966;7.854;2023-01-13T05:07:53;11.00;99.90
3528;DHT22;1778;47.966;7.854;2023-01-13T05:08:55;11.00;99.90
3528;DHT22;1778;47.966;7.854;2023-01-13T05:09:57;11.00;99.90
3528;DHT22;1778;47.966;7.854;2023-01-13T05:10:59;11.00;99.90
3528;DHT22;1778;47.966;7.854;2023-01-13T05:12:01;11.00;99.90
3528;DHT22;1778;47.966;7.854;2023-01-13T05:13:21;11.00;99.90
3528;DHT22;1778;47.966;7.854;2023-01-13T05:14:41;11.00;99.90
3528;DHT22;1778;47.966;7.854;2023-01-13T05:16:02;11.00;99.90
3528;DHT22;1778;47.966;7.854;2023-01-13T05:17:23;11.00;99.90
3528;DHT22;1778;47.966;7.854;2023-01-13T05:18:26;11.00;99.90
3528;DHT22;1778;47.966;7.854;2023-01-13T05:19:33;10.90;99.90
3528;DHT22;1778;47.966;7.854;2023-01-13T05:20:35;10.90;99.90
3528;DHT22;1778;47.966;7.854;2023-01-13T05:21:37;10.90;99.90
3528;DHT22;1778;47.966;7.854;2023-01-13T05:22:57;10.90;99.90
3528;DHT22;1778;47.966;7.854;2023-01-13T05:24:17;10.90;99.90
3528;DHT22;1778;47.966;7.854;2023-01-13T05:25:41;11.00;99.90
3528;DHT22;1778;47.966;7.854;2023-01-13T05:26:45;11.00;99.90
3528;DHT22;1778;47.966;7.854;2023-01-13T05:27:57;10.90;99.90
3528;DHT22;1778;47.966;7.854;2023-01-13T05:28:59;11.00;99.90
3528;DHT22;1778;47.966;7.854;2023-01-13T05:30:00;10.90;99.90
3528;DHT22;1778;47.966;7.854;2023-01-13T05:31:02;11.00;99.90
3528;DHT22;1778;47.966;7.854;2023-01-13T05:32:04;11.00;99.90
3528;DHT22;1778;47.966;7.854;2023-01-13T05:33:09;11.00;99.90
3528;DHT22;1778;47.966;7.854;2023-01-13T05:34:10;11.00;99.90
3528;DHT22;1778;47.966;7.854;2023-01-13T05:35:11;11.00;99.90
3528;DHT22;1778;47.966;7.854;2023-01-13T05:36:13;11.00;99.90
3528;DHT22;1778;47.966;7.854;2023-01-13T05:37:15;10.90;99.90
3528;DHT22;1778;47.966;7.854;2023-01-13T05:38:17;10.90;99.90
3528;DHT22;1778;47.966;7.854;2023-01-13T05:39:18;10.90;99.90
3528;DHT22;1778;47.966;7.854;2023-01-13T05:40:20;10.90;99.90
3528;DHT22;1778;47.966;7.854;2023-01-13T05:41:42;10.90;99.90
3528;DHT22;1778;47.966;7.854;2023-01-13T05:43:12;10.90;99.90
3528;DHT22;1778;47.966;7.854;2023-01-13T05:44:20;10.90;99.90
3528;DHT22;1778;47.966;7.854;2023-01-13T05:45:22;10.80;99.90
3528;DHT22;1778;47.966;7.854;2023-01-13T05:46:23;10.80;99.90
3528;DHT22;1778;47.966;7.854;2023-01-13T05:47:25;10.90;99.90
3528;DHT22;1778;47.966;7.854;2023-01-13T05:48:40;10.90;99.90
3528;DHT22;1778;47.966;7.854;2023-01-13T05:49:42;10.90;99.90
3528;DHT22;1778;47.966;7.854;2023-01-13T05:50:44;10.90;99.90
3528;DHT22;1778;47.966;7.854;2023-01-13T05:51:46;10.90;99.90
3528;DHT22;1778;47.966;7.854;2023-01-13T05:52:48;10.80;99.90
3528;DHT22;1778;47.966;7.854;2023-01-13T05:53:50;10.80;99.90
3528;DHT22;1778;47.966;7.854;2023-01-13T05:54:52;10.80;99.90
3528;DHT22;1778;47.966;7.854;2023-01-13T05:55:54;10.80;99.90
3528;DHT22;1778;47.966;7.854;2023-01-13T05:56:56;10.80;99.90
3528;DHT22;1778;47.966;7.854;2023-01-13T05:57:58;10.80;99.90
3528;DHT22;1778;47.966;7.854;2023-01-13T05:58:59;10.90;99.90
3528;DHT22;1778;47.966;7.854;2023-01-13T06:00:01;10.90;99.90
3528;DHT22;1778;47.966;7.854;2023-01-13T06:01:11;10.90;99.90
3528;DHT22;1778;47.966;7.854;2023-01-13T06:02:13;10.90;99.90
3528;DHT22;1778;47.966;7.854;2023-01-13T06:03:15;10.90;99.90
3528;DHT22;1778;47.966;7.854;2023-01-13T06:04:17;10.90;99.90
3528;DHT22;1778;47.966;7.854;2023-01-13T06:05:18;10.90;99.90
3528;DHT22;1778;47.966;7.854;2023-01-13T06:06:20;10.90;99.90
3528;DHT22;1778;47.966;7.854;2023-01-13T06:07:22;11.00;99.90
3528;DHT22;1778;47.966;7.854;2023-01-13T06:08:24;11.00;99.90
3528;DHT22;1778;47.966;7.854;2023-01-13T06:09:26;11.00;99.90
3528;DHT22;1778;47.966;7.854;2023-01-13T06:10:28;11.00;99.90
3528;DHT22;1778;47.966;7.854;2023-01-13T06:11:30;11.00;99.90
3528;DHT22;1778;47.966;7.854;2023-01-13T06:12:31;11.00;99.90
3528;DHT22;1778;47.966;7.854;2023-01-13T06:13:33;11.00;99.90
3528;DHT22;1778;47.966;7.854;2023-01-13T06:14:35;10.90;99.90
3528;DHT22;1778;47.966;7.854;2023-01-13T06:15:43;10.90;99.90
3528;DHT22;1778;47.966;7.854;2023-01-13T06:16:45;10.90;99.90
3528;DHT22;1778;47.966;7.854;2023-01-13T06:17:47;10.90;99.90
3528;DHT22;1778;47.966;7.854;2023-01-13T06:18:48;11.00;99.90
3528;DHT22;1778;47.966;7.854;2023-01-13T06:19:49;11.00;99.90
3528;DHT22;1778;47.966;7.854;2023-01-13T06:20:51;11.00;99.90
3528;DHT22;1778;47.966;7.854;2023-01-13T06:21:55;10.90;99.90
3528;DHT22;1778;47.966;7.854;2023-01-13T06:22:58;10.90;99.90
3528;DHT22;1778;47.966;7.854;2023-01-13T06:24:00;11.00;99.90
3528;DHT22;1778;47.966;7.854;2023-01-13T06:25:02;11.00;99.90
3528;DHT22;1778;47.966;7.854;2023-01-13T06:26:15;11.00;99.90
3528;DHT22;1778;47.966;7.854;2023-01-13T06:27:20;10.90;99.90
3528;DHT22;1778;47.966;7.854;2023-01-13T06:28:22;10.90;99.90
3528;DHT22;1778;47.966;7.854;2023-01-13T06:29:23;11.00;99.90
3528;DHT22;1778;47.966;7.854;2023-01-13T06:30:34;11.00;99.90
3528;DHT22;1778;47.966;7.854;2023-01-13T06:31:38;11.00;99.90
3528;DHT22;1778;47.966;7.854;2023-01-13T06:32:44;11.00;99.90
3528;DHT22;1778;47.966;7.854;2023-01-13T06:33:52;11.00;99.90
3528;DHT22;1778;47.966;7.854;2023-01-13T06:34:59;11.00;99.90
3528;DHT22;1778;47.966;7.854;2023-01-13T06:36:10;11.00;99.90
3528;DHT22;1778;47.966;7.854;2023-01-13T06:37:13;11.00;99.90
3528;DHT22;1778;47.966;7.854;2023-01-13T06:38:17;11.00;99.90
3528;DHT22;1778;47.966;7.854;2023-01-13T06:39:22;11.00;99.90
3528;DHT22;1778;47.966;7.854;2023-01-13T06:40:25;11.00;99.90
3528;DHT22;1778;47.966;7.854;2023-01-13T06:41:32;11.00;99.90
3528;DHT22;1778;47.966;7.854;2023-01-13T06:42:54;11.00;99.90
3528;DHT22;1778;47.966;7.854;2023-01-13T06:44:17;11.00;99.90
3528;DHT22;1778;47.966;7.854;2023-01-13T06:45:21;11.00;99.90
3528;DHT22;1778;47.966;7.854;2023-01-13T06:46:24;11.00;99.90
3528;DHT22;1778;47.966;7.854;2023-01-13T06:47:26;11.00;99.90
3528;DHT22;1778;47.966;7.854;2023-01-13T06:48:29;11.00;99.90
3528;DHT22;1778;47.966;7.854;2023-01-13T06:49:35;10.90;99.90
3528;DHT22;1778;47.966;7.854;2023-01-13T06:50:37;10.90;99.90
3528;DHT22;1778;47.966;7.854;2023-01-13T06:51:38;11.00;99.90
3528;DHT22;1778;47.966;7.854;2023-01-13T06:52:40;11.00;99.90
3528;DHT22;1778;47.966;7.854;2023-01-13T06:53:41;11.00;99.90
3528;DHT22;1778;47.966;7.854;2023-01-13T06:54:43;11.00;99.90
3528;DHT22;1778;47.966;7.854;2023-01-13T06:55:44;11.00;99.90
3528;DHT22;1778;47.966;7.854;2023-01-13T06:56:46;10.90;99.90
3528;DHT22;1778;47.966;7.854;2023-01-13T06:57:56;10.90;99.90
3528;DHT22;1778;47.966;7.854;2023-01-13T06:58:57;11.00;99.90
3528;DHT22;1778;47.966;7.854;2023-01-13T06:59:59;11.00;99.90
3528;DHT22;1778;47.966;7.854;2023-01-13T07:01:01;11.00;99.90
3528;DHT22;1778;47.966;7.854;2023-01-13T07:02:02;11.10;99.90
3528;DHT22;1778;47.966;7.854;2023-01-13T07:03:15;11.10;99.90
3528;DHT22;1778;47.966;7.854;2023-01-13T07:04:16;11.00;99.90
3528;DHT22;1778;47.966;7.854;2023-01-13T07:05:19;11.00;99.90
3528;DHT22;1778;47.966;7.854;2023-01-13T07:06:21;11.00;99.90
3528;DHT22;1778;47.966;7.854;2023-01-13T07:07:22;11.10;99.90
3528;DHT22;1778;47.966;7.854;2023-01-13T07:08:24;11.00;99.90
3528;DHT22;1778;47.966;7.854;2023-01-13T07:09:26;11.00;99.90
3528;DHT22;1778;47.966;7.854;2023-01-13T07:10:27;11.10;99.90
3528;DHT22;1778;47.966;7.854;2023-01-13T07:11:29;11.00;99.90
3528;DHT22;1778;47.966;7.854;2023-01-13T07:12:30;11.10;99.90
3528;DHT22;1778;47.966;7.854;2023-01-13T07:13:51;11.00;99.90
3528;DHT22;1778;47.966;7.854;2023-01-13T07:15:12;11.10;99.90
3528;DHT22;1778;47.966;7.854;2023-01-13T07:16:19;11.10;99.90
3528;DHT22;1778;47.966;7.854;2023-01-13T07:17:21;11.10;99.90
3528;DHT22;1778;47.966;7.854;2023-01-13T07:18:27;11.10;99.90
3528;DHT22;1778;47.966;7.854;2023-01-13T07:19:29;11.10;99.90
3528;DHT22;1778;47.966;7.854;2023-01-13T07:20:30;11.10;99.90
3528;DHT22;1778;47.966;7.854;2023-01-13T07:21:32;11.10;99.90
3528;DHT22;1778;47.966;7.854;2023-01-13T07:22:34;11.10;99.90
3528;DHT22;1778;47.966;7.854;2023-01-13T07:23:38;11.10;99.90
3528;DHT22;1778;47.966;7.854;2023-01-13T07:24:40;11.10;99.90
3528;DHT22;1778;47.966;7.854;2023-01-13T07:25:41;11.10;99.90
3528;DHT22;1778;47.966;7.854;2023-01-13T07:26:43;11.10;99.90
3528;DHT22;1778;47.966;7.854;2023-01-13T07:27:45;11.00;99.90
3528;DHT22;1778;47.966;7.854;2023-01-13T07:28:46;11.10;99.90
3528;DHT22;1778;47.966;7.854;2023-01-13T07:29:48;11.10;99.90
3528;DHT22;1778;47.966;7.854;2023-01-13T07:30:49;11.10;99.90
3528;DHT22;1778;47.966;7.854;2023-01-13T07:31:51;11.10;99.90
3528;DHT22;1778;47.966;7.854;2023-01-13T07:32:52;11.10;99.90
3528;DHT22;1778;47.966;7.854;2023-01-13T07:33:54;11.20;99.90
3528;DHT22;1778;47.966;7.854;2023-01-13T07:34:55;11.20;99.90
3528;DHT22;1778;47.966;7.854;2023-01-13T07:36:01;11.20;99.90